createdAt,value
2024-01-19T00:00:22.574Z,15.82
2024-01-19T00:03:24.042Z,12.80
2024-01-19T00:06:25.730Z,13.65
2024-01-19T00:09:27.345Z,15.23
2024-01-19T00:12:28.929Z,15.05
2024-01-19T00:15:37.272Z,14.23
2024-01-19T00:18:43.696Z,14.25
2024-01-19T00:21:46.505Z,14.38
2024-01-19T00:24:48.321Z,14.90
2024-01-19T00:27:49.886Z,13.77
2024-01-19T00:30:51.380Z,12.70
2024-01-19T00:33:53.086Z,11.98
2024-01-19T00:36:54.669Z,11.23
2024-01-19T00:39:56.212Z,12.37
2024-01-19T00:42:57.862Z,10.95
2024-01-19T00:45:59.709Z,11.88
2024-01-19T00:49:01.523Z,12.35
2024-01-19T00:52:03.410Z,12.50
2024-01-19T00:55:05.351Z,10.20
2024-01-19T00:58:07.051Z,10.93
2024-01-19T01:01:08.573Z,9.75
2024-01-19T01:04:10.308Z,10.65
2024-01-19T01:07:12.229Z,10.20
2024-01-19T01:10:13.783Z,10.60
2024-01-19T01:13:15.364Z,9.02
2024-01-19T01:16:16.873Z,8.82
2024-01-19T01:19:18.541Z,9.82
2024-01-19T01:22:20.150Z,10.57
2024-01-19T01:25:21.727Z,10.93
2024-01-19T01:28:23.358Z,10.43
2024-01-19T01:31:24.996Z,8.65
2024-01-19T01:34:26.879Z,8.38
2024-01-19T01:37:28.389Z,11.73
2024-01-19T01:40:29.854Z,10.67
2024-01-19T01:43:31.605Z,11.52
2024-01-19T01:46:33.150Z,10.20
2024-01-19T01:49:35.036Z,9.95
2024-01-19T01:52:37.090Z,10.90
2024-01-19T01:55:39.084Z,10.27
2024-01-19T01:58:40.709Z,9.52
2024-01-19T02:01:42.374Z,9.90
2024-01-19T02:04:44.087Z,9.98
2024-01-19T02:07:45.800Z,9.70
2024-01-19T02:10:48.180Z,9.30
2024-01-19T02:13:49.657Z,8.07
2024-01-19T02:16:51.196Z,10.63
2024-01-19T02:19:52.831Z,7.95
2024-01-19T02:22:55.931Z,10.53
2024-01-19T02:25:57.561Z,9.93
2024-01-19T02:28:59.296Z,10.77
2024-01-19T02:32:00.828Z,9.15
2024-01-19T02:35:02.719Z,10.27
2024-01-19T02:38:04.318Z,9.77
2024-01-19T02:41:06.014Z,8.20
2024-01-19T02:44:07.715Z,9.68
2024-01-19T02:47:09.216Z,9.48
2024-01-19T02:50:11.009Z,10.30
2024-01-19T02:53:12.575Z,9.73
2024-01-19T02:56:14.126Z,8.20
2024-01-19T02:59:15.876Z,7.70
2024-01-19T03:02:17.509Z,8.25
2024-01-19T03:05:20.691Z,9.30
2024-01-19T03:08:23.544Z,9.97
2024-01-19T03:11:25.179Z,9.17
2024-01-19T03:14:26.825Z,7.32
2024-01-19T03:17:29.020Z,9.13
2024-01-19T03:20:30.746Z,6.47
2024-01-19T03:23:32.311Z,6.73
2024-01-19T03:26:34.002Z,8.63
2024-01-19T03:29:35.575Z,8.27
2024-01-19T03:32:37.257Z,8.30
2024-01-19T03:35:38.957Z,7.97
2024-01-19T03:38:40.567Z,8.50
2024-01-19T03:41:42.741Z,9.10
2024-01-19T03:44:44.420Z,7.10
2024-01-19T03:47:47.796Z,8.15
2024-01-19T03:50:49.698Z,7.28
2024-01-19T03:53:51.997Z,8.03
2024-01-19T03:56:54.551Z,8.47
2024-01-19T03:59:56.213Z,8.13
2024-01-19T04:02:57.926Z,7.00
2024-01-19T04:05:59.727Z,8.07
2024-01-19T04:09:01.315Z,6.27
2024-01-19T04:12:12.503Z,6.63
2024-01-19T04:15:14.092Z,6.97
2024-01-19T04:18:15.750Z,7.78
2024-01-19T04:21:17.435Z,7.80
2024-01-19T04:24:19.043Z,6.83
2024-01-19T04:27:20.600Z,6.63
2024-01-19T04:30:22.214Z,8.20
2024-01-19T04:33:23.838Z,6.13
2024-01-19T04:36:25.500Z,7.00
2024-01-19T04:39:27.024Z,6.13
2024-01-19T04:42:28.521Z,6.27
2024-01-19T04:45:30.189Z,6.05
2024-01-19T04:48:31.853Z,6.15
2024-01-19T04:51:33.539Z,5.05
2024-01-19T04:54:35.056Z,7.53
2024-01-19T04:57:36.652Z,6.13
2024-01-19T05:00:38.256Z,6.43
2024-01-19T05:03:42.392Z,6.13
2024-01-19T05:06:44.200Z,6.40
2024-01-19T05:09:46.261Z,6.80
2024-01-19T05:12:47.856Z,6.57
2024-01-19T05:15:49.393Z,7.70
2024-01-19T05:18:51.097Z,6.55
2024-01-19T05:21:52.791Z,6.20
2024-01-19T05:24:54.337Z,5.23
2024-01-19T05:27:56.636Z,7.40
2024-01-19T05:30:58.167Z,6.78
2024-01-19T05:33:59.941Z,5.30
2024-01-19T05:37:01.722Z,5.07
2024-01-19T05:40:04.676Z,5.83
2024-01-19T05:46:25.259Z,5.95
2024-01-19T05:49:27.041Z,4.95
2024-01-19T05:52:28.701Z,4.68
2024-01-19T05:55:30.274Z,4.70
2024-01-19T05:58:31.793Z,5.60
2024-01-19T06:01:33.306Z,6.45
2024-01-19T06:04:38.021Z,6.43
2024-01-19T06:07:39.588Z,5.68
2024-01-19T06:10:41.074Z,5.77
2024-01-19T06:13:42.615Z,4.83
2024-01-19T06:16:44.298Z,5.10
2024-01-19T06:19:45.884Z,6.43
2024-01-19T06:22:47.502Z,5.47
2024-01-19T06:25:49.106Z,5.57
2024-01-19T06:28:50.679Z,5.47
2024-01-19T06:31:52.308Z,5.88
2024-01-19T06:34:53.943Z,5.85
2024-01-19T06:37:55.633Z,5.57
2024-01-19T06:40:57.210Z,5.80
2024-01-19T06:43:58.900Z,5.30
2024-01-19T06:47:00.501Z,4.57
2024-01-19T06:50:02.040Z,5.40
2024-01-19T06:53:05.234Z,4.88
2024-01-19T06:56:09.511Z,4.83
2024-01-19T06:59:11.826Z,4.47
2024-01-19T07:02:13.505Z,3.30
2024-01-19T07:05:15.072Z,5.10
2024-01-19T07:08:16.696Z,4.63
2024-01-19T07:11:18.244Z,4.43
2024-01-19T07:14:20.180Z,4.30
2024-01-19T07:17:22.040Z,3.70
2024-01-19T07:20:23.827Z,3.33
2024-01-19T07:23:25.432Z,3.83
2024-01-19T07:26:27.196Z,3.83
2024-01-19T07:29:28.928Z,3.70
2024-01-19T07:32:31.246Z,3.75
2024-01-19T07:35:35.123Z,4.18
2024-01-19T07:38:37.331Z,3.22
2024-01-19T07:41:39.027Z,2.87
2024-01-19T07:44:40.714Z,3.63
2024-01-19T07:47:42.985Z,3.67
2024-01-19T07:50:44.726Z,2.90
2024-01-19T07:53:46.523Z,3.85
2024-01-19T07:56:48.075Z,4.00
2024-01-19T07:59:49.628Z,3.67
2024-01-19T08:02:51.316Z,3.88
2024-01-19T08:05:53.083Z,3.58
2024-01-19T08:08:54.759Z,2.85
2024-01-19T08:11:56.679Z,3.30
2024-01-19T08:14:59.307Z,2.70
2024-01-19T08:18:00.958Z,2.58
2024-01-19T08:21:07.892Z,3.67
2024-01-19T08:24:09.788Z,3.63
2024-01-19T08:27:11.705Z,3.50
2024-01-19T08:30:13.635Z,3.20
2024-01-19T08:33:15.686Z,3.42
2024-01-19T08:36:18.044Z,3.30
2024-01-19T08:39:19.754Z,4.15
2024-01-19T08:42:21.413Z,3.80
2024-01-19T08:45:23.153Z,3.37
2024-01-19T08:48:25.751Z,5.43
2024-01-19T08:51:29.703Z,4.25
2024-01-19T08:54:31.324Z,3.97
2024-01-19T08:57:33.660Z,5.17
2024-01-19T09:00:35.367Z,4.07
2024-01-19T09:03:39.274Z,4.63
2024-01-19T09:06:43.970Z,4.78
2024-01-19T09:09:46.825Z,4.63
2024-01-19T09:12:48.352Z,4.80
2024-01-19T09:15:49.844Z,4.33
2024-01-19T09:18:51.431Z,4.57
2024-01-19T09:21:53.153Z,4.93
2024-01-19T09:24:54.732Z,3.90
2024-01-19T09:27:56.337Z,4.03
2024-01-19T09:30:57.965Z,4.50
2024-01-19T09:33:59.579Z,4.88
2024-01-19T09:37:01.649Z,4.47
2024-01-19T09:40:03.372Z,4.93
2024-01-19T09:43:04.990Z,4.70
2024-01-19T09:46:07.247Z,5.47
2024-01-19T09:49:21.571Z,5.07
2024-01-19T09:52:41.258Z,4.38
2024-01-19T09:55:43.102Z,5.18
2024-01-19T09:58:46.776Z,5.20
2024-01-19T10:01:48.618Z,4.37
2024-01-19T10:04:51.221Z,4.15
2024-01-19T10:07:59.537Z,3.65
2024-01-19T10:11:06.072Z,5.22
2024-01-19T10:14:07.636Z,4.97
2024-01-19T10:17:10.195Z,5.73
2024-01-19T10:20:16.577Z,5.38
2024-01-19T10:23:23.985Z,6.25
2024-01-19T10:26:27.840Z,7.03
2024-01-19T10:29:29.519Z,5.97
2024-01-19T10:32:32.704Z,5.37
2024-01-19T10:35:36.827Z,5.57
2024-01-19T10:38:40.411Z,6.55
2024-01-19T10:41:42.226Z,6.53
2024-01-19T10:44:43.920Z,4.43
2024-01-19T10:47:54.243Z,5.60
2024-01-19T10:51:03.230Z,6.55
2024-01-19T10:54:07.173Z,6.53
2024-01-19T10:57:12.829Z,6.25
2024-01-19T11:00:24.760Z,6.23
2024-01-19T11:03:26.483Z,5.63
2024-01-19T11:06:28.756Z,5.25
2024-01-19T11:09:30.434Z,6.00
2024-01-19T11:12:35.028Z,6.03
2024-01-19T11:15:54.310Z,4.97
2024-01-19T11:18:56.953Z,6.00
2024-01-19T11:22:00.451Z,5.95
2024-01-19T11:25:09.516Z,3.83
2024-01-19T11:28:23.407Z,5.63
2024-01-19T11:31:34.792Z,5.43
2024-01-19T11:34:40.174Z,6.13
2024-01-19T11:37:47.000Z,4.65
2024-01-19T11:40:49.675Z,5.95
2024-01-19T11:43:51.367Z,6.43
2024-01-19T11:46:52.934Z,6.27
2024-01-19T11:49:54.699Z,4.93
2024-01-19T11:52:56.500Z,6.13
2024-01-19T11:55:58.072Z,6.63
2024-01-19T11:59:00.593Z,6.90
2024-01-19T12:02:02.145Z,6.70
2024-01-19T12:05:05.408Z,6.27
2024-01-19T12:08:07.447Z,6.30
2024-01-19T12:11:12.124Z,5.80
2024-01-19T12:14:14.251Z,6.85
2024-01-19T12:17:16.782Z,4.23
2024-01-19T12:20:20.472Z,5.23
2024-01-19T12:23:23.059Z,6.15
2024-01-19T12:26:25.317Z,4.57
2024-01-19T12:29:32.998Z,5.10
2024-01-19T12:32:34.609Z,5.87
2024-01-19T12:35:36.176Z,7.13
2024-01-19T12:38:39.242Z,6.40
2024-01-19T12:41:41.654Z,6.63
2024-01-19T12:44:43.303Z,6.50
2024-01-19T12:47:49.789Z,5.97
2024-01-19T12:50:51.464Z,6.40
2024-01-19T12:53:57.464Z,5.43
2024-01-19T12:56:59.129Z,5.50
2024-01-19T13:00:20.141Z,5.93
2024-01-19T13:03:22.090Z,5.93
2024-01-19T13:06:24.050Z,5.70
2024-01-19T13:09:26.654Z,5.80
2024-01-19T13:12:28.530Z,6.13
2024-01-19T13:15:32.133Z,6.35
2024-01-19T13:18:33.773Z,7.00
2024-01-19T13:21:35.437Z,5.17
2024-01-19T13:24:37.861Z,4.63
2024-01-19T13:27:39.524Z,6.22
2024-01-19T13:30:41.232Z,5.82
2024-01-19T13:33:46.834Z,6.07
2024-01-19T13:36:48.433Z,5.70
2024-01-19T13:39:53.880Z,5.35
2024-01-19T13:42:55.465Z,5.53
2024-01-19T13:45:57.079Z,5.78
2024-01-19T13:48:58.838Z,5.63
2024-01-19T13:52:00.686Z,5.03
2024-01-19T13:55:02.574Z,4.60
2024-01-19T13:58:04.264Z,5.38
2024-01-19T14:01:07.498Z,5.10
2024-01-19T14:04:09.208Z,4.70
2024-01-19T14:07:11.181Z,4.33
2024-01-19T14:10:12.977Z,3.67
2024-01-19T14:13:15.734Z,4.43
2024-01-19T14:16:17.421Z,4.47
2024-01-19T14:19:19.079Z,4.57
2024-01-19T14:22:20.779Z,5.10
2024-01-19T14:25:22.344Z,4.57
2024-01-19T14:28:23.848Z,4.80
2024-01-19T14:31:25.563Z,4.15
2024-01-19T14:34:28.043Z,4.50
2024-01-19T14:37:29.797Z,4.57
2024-01-19T14:40:31.587Z,4.65
2024-01-19T14:43:33.627Z,3.42
2024-01-19T14:46:35.874Z,4.90
2024-01-19T14:49:38.152Z,4.53
2024-01-19T14:52:44.588Z,5.00
2024-01-19T14:55:46.341Z,4.38
2024-01-19T14:58:47.846Z,3.72
2024-01-19T15:01:53.263Z,4.40
2024-01-19T15:04:54.947Z,4.03
2024-01-19T15:07:56.644Z,3.57
2024-01-19T15:10:58.194Z,4.35
2024-01-19T15:13:59.796Z,4.25
2024-01-19T15:17:03.451Z,4.43
2024-01-19T15:20:06.298Z,3.67
2024-01-19T15:23:09.057Z,4.57
2024-01-19T15:26:16.203Z,3.60
2024-01-19T15:29:18.198Z,4.60
2024-01-19T15:32:20.129Z,3.85
2024-01-19T15:35:22.062Z,4.20
2024-01-19T15:38:23.941Z,3.87
2024-01-19T15:41:26.011Z,4.53
2024-01-19T15:44:31.481Z,3.55
2024-01-19T15:47:34.221Z,3.72
2024-01-19T15:50:35.986Z,4.30
2024-01-19T15:53:42.571Z,3.30
2024-01-19T15:56:44.268Z,3.60
2024-01-19T15:59:46.860Z,3.85
2024-01-19T16:02:48.577Z,4.13
2024-01-19T16:05:50.275Z,3.53
2024-01-19T16:08:52.020Z,3.97
2024-01-19T16:11:55.047Z,3.88
2024-01-19T16:14:56.595Z,4.32
2024-01-19T16:17:58.191Z,4.70
2024-01-19T16:20:59.836Z,4.10
2024-01-19T16:24:01.475Z,2.83
2024-01-19T16:27:03.215Z,3.40
2024-01-19T16:30:07.031Z,4.00
2024-01-19T16:33:08.767Z,3.58
2024-01-19T16:36:10.414Z,3.50
2024-01-19T16:39:12.493Z,4.23
2024-01-19T16:42:14.441Z,4.00
2024-01-19T16:45:17.738Z,4.13
2024-01-19T16:48:19.963Z,2.70
2024-01-19T16:51:24.046Z,3.80
2024-01-19T16:54:31.356Z,3.87
2024-01-19T16:57:33.281Z,4.47
2024-01-19T17:00:35.874Z,4.10
2024-01-19T17:03:37.943Z,3.40
2024-01-19T17:06:39.794Z,3.20
2024-01-19T17:09:42.413Z,4.13
2024-01-19T17:12:45.241Z,3.47
2024-01-19T17:15:47.012Z,3.40
2024-01-19T17:18:48.649Z,3.30
2024-01-19T17:21:50.237Z,2.97
2024-01-19T17:24:52.203Z,3.50
2024-01-19T17:27:53.786Z,3.22
2024-01-19T17:30:55.680Z,3.30
2024-01-19T17:34:06.263Z,2.53
2024-01-19T17:37:11.890Z,2.50
2024-01-19T17:40:13.386Z,2.70
2024-01-19T17:43:15.008Z,2.47
2024-01-19T17:46:16.753Z,2.75
2024-01-19T17:49:18.281Z,3.08
2024-01-19T17:52:19.867Z,2.33
2024-01-19T17:55:22.618Z,3.70
2024-01-19T17:58:24.146Z,2.90
2024-01-19T18:01:25.687Z,3.17
2024-01-19T18:04:27.269Z,2.08
2024-01-19T18:07:28.989Z,2.80
2024-01-19T18:10:30.793Z,2.33
2024-01-19T18:13:32.806Z,2.72
2024-01-19T18:16:34.514Z,3.20
2024-01-19T18:19:36.491Z,3.20
2024-01-19T18:22:38.322Z,3.40
2024-01-19T18:25:42.241Z,3.27
2024-01-19T18:28:44.239Z,3.00
2024-01-19T18:31:47.005Z,3.35
2024-01-19T18:34:48.634Z,3.25
2024-01-19T18:37:50.535Z,3.40
2024-01-19T18:40:52.183Z,3.60
2024-01-19T18:43:53.769Z,4.22
2024-01-19T18:46:55.560Z,3.53
2024-01-19T18:49:57.327Z,3.42
2024-01-19T18:52:59.875Z,2.30
2024-01-19T18:56:01.647Z,2.93
2024-01-19T18:59:03.441Z,3.67
2024-01-19T19:02:05.793Z,3.45
2024-01-19T19:05:07.994Z,2.97
2024-01-19T19:08:09.692Z,4.20
2024-01-19T19:11:11.800Z,3.93
2024-01-19T19:14:14.317Z,2.08
2024-01-19T19:17:17.035Z,3.20
2024-01-19T19:20:19.149Z,3.10
2024-01-19T19:23:20.811Z,2.37
2024-01-19T19:26:24.023Z,3.23
2024-01-19T19:29:26.061Z,3.25
2024-01-19T19:32:27.692Z,3.53
2024-01-19T19:35:29.611Z,3.50
2024-01-19T19:38:31.300Z,2.70
2024-01-19T19:41:35.037Z,3.23
2024-01-19T19:44:36.772Z,4.00
2024-01-19T19:47:39.580Z,3.50
2024-01-19T19:50:41.107Z,2.60
2024-01-19T19:53:42.767Z,3.03
2024-01-19T19:56:44.529Z,4.00
2024-01-19T19:59:46.043Z,3.90
2024-01-19T20:02:47.641Z,3.60
2024-01-19T20:05:49.234Z,3.72
2024-01-19T20:08:53.931Z,4.40
2024-01-19T20:11:55.599Z,4.07
2024-01-19T20:14:57.334Z,3.83
2024-01-19T20:17:59.233Z,3.55
2024-01-19T20:21:00.966Z,3.75
2024-01-19T20:24:03.339Z,3.60
2024-01-19T20:27:05.318Z,3.10
2024-01-19T20:30:08.076Z,4.35
2024-01-19T20:33:09.871Z,4.70
2024-01-19T20:36:11.883Z,3.33
2024-01-19T20:39:13.986Z,3.00
2024-01-19T20:42:15.645Z,3.93
2024-01-19T20:45:17.301Z,3.20
2024-01-19T20:48:18.976Z,4.78
2024-01-19T20:51:21.242Z,3.85
2024-01-19T20:54:25.570Z,3.20
2024-01-19T20:57:27.113Z,2.47
2024-01-19T21:00:29.830Z,2.92
2024-01-19T21:03:31.599Z,2.92
2024-01-19T21:06:33.253Z,3.42
2024-01-19T21:09:36.453Z,4.03
2024-01-19T21:12:43.495Z,2.40
2024-01-19T21:15:46.304Z,3.47
2024-01-19T21:18:48.201Z,3.60
2024-01-19T21:21:49.854Z,3.28
2024-01-19T21:24:51.430Z,2.73
2024-01-19T21:27:52.947Z,3.57
2024-01-19T21:30:54.629Z,2.63
2024-01-19T21:33:56.140Z,3.80
2024-01-19T21:36:57.616Z,3.30
2024-01-19T21:39:59.295Z,3.23
2024-01-19T21:43:00.860Z,3.07
2024-01-19T21:46:07.661Z,3.05
2024-01-19T21:49:10.241Z,4.43
2024-01-19T21:52:12.064Z,2.90
2024-01-19T21:55:13.865Z,2.83
2024-01-19T21:58:15.402Z,2.47
2024-01-19T22:01:19.756Z,2.38
2024-01-19T22:04:23.689Z,2.88
2024-01-19T22:07:25.542Z,2.88
2024-01-19T22:10:27.522Z,3.00
2024-01-19T22:13:29.089Z,2.10
2024-01-19T22:16:31.336Z,3.33
2024-01-19T22:19:32.992Z,3.22
2024-01-19T22:22:34.585Z,2.92
2024-01-19T22:25:36.247Z,3.43
2024-01-19T22:28:37.825Z,3.30
2024-01-19T22:31:39.981Z,3.80
2024-01-19T22:34:41.924Z,3.90
2024-01-19T22:37:43.849Z,2.83
2024-01-19T22:40:45.508Z,3.13
2024-01-19T22:43:47.459Z,3.47
2024-01-19T22:46:49.125Z,3.17
2024-01-19T22:49:50.747Z,4.22
2024-01-19T22:52:53.237Z,3.40
2024-01-19T22:55:54.885Z,4.00
2024-01-19T22:58:57.014Z,3.33
2024-01-19T23:01:59.010Z,2.80
2024-01-19T23:05:04.060Z,2.80
2024-01-19T23:08:06.002Z,3.90
2024-01-19T23:11:09.946Z,4.20
2024-01-19T23:14:11.871Z,3.47
2024-01-19T23:17:13.772Z,3.38
2024-01-19T23:20:15.715Z,3.95
2024-01-19T23:23:17.467Z,3.35
2024-01-19T23:26:19.423Z,3.27
2024-01-19T23:29:23.877Z,2.97
2024-01-19T23:32:25.934Z,3.63
2024-01-19T23:35:27.818Z,3.42
2024-01-19T23:38:29.599Z,4.20
2024-01-19T23:41:31.473Z,3.70
2024-01-19T23:44:33.067Z,4.07
2024-01-19T23:47:34.650Z,4.78
2024-01-19T23:50:36.585Z,3.33
2024-01-19T23:53:38.221Z,3.60
2024-01-19T23:56:39.814Z,3.10
2024-01-19T23:59:41.588Z,2.77
